Time;durP1;ratioP1;P1;durP2;ratioP2;P2;SDS_P1;SDS_P2;PMS_P1;PMS_P2;Temp;Humidity;BMP_temperature;BMP_pressure;BME280_temperature;BME280_humidity;BME280_pressure;Samples;Min_cycle;Max_cycle;Signal;HPM_P1;HPM_P2
2023/03/30 00:00:17;;;;;;;22.77;1.75;;;19.90;75.30;;;;;;5026223;28;20224;-51
2023/03/30 00:02:45;;;;;;;3.40;1.25;;;20.00;75.50;;;;;;5023685;28;20199;-50
2023/03/30 00:05:12;;;;;;;3.10;1.75;;;20.00;75.40;;;;;;5020182;28;20196;-52
2023/03/30 00:07:41;;;;;;;6.57;1.52;;;20.00;75.40;;;;;;5022156;28;20211;-51
2023/03/30 00:10:09;;;;;;;8.00;1.92;;;20.00;75.30;;;;;;5018682;28;20759;-50
2023/03/30 00:12:38;;;;;;;4.45;1.42;;;20.00;75.30;;;;;;5019675;28;20351;-50
2023/03/30 00:15:06;;;;;;;1.70;1.15;;;20.00;75.30;;;;;;5027811;28;20576;-52
2023/03/30 00:17:33;;;;;;;1.55;1.00;;;19.90;75.10;;;;;;5019007;28;20197;-50
2023/03/30 00:20:03;;;;;;;2.20;1.40;;;19.90;75.00;;;;;;5024989;28;20307;-49
2023/03/30 00:22:30;;;;;;;5.28;1.58;;;19.90;74.90;;;;;;5024602;28;20223;-50
2023/03/30 00:24:57;;;;;;;2.90;1.40;;;19.90;74.90;;;;;;5022445;28;20204;-51
2023/03/30 00:27:24;;;;;;;3.60;1.70;;;19.90;74.80;;;;;;5026581;28;20258;-51
2023/03/30 00:29:52;;;;;;;2.60;1.20;;;19.90;74.70;;;;;;5021171;28;20290;-51
2023/03/30 00:32:19;;;;;;;2.75;1.10;;;19.90;74.60;;;;;;5019260;28;20264;-50
2023/03/30 00:34:45;;;;;;;4.43;2.08;;;19.90;74.60;;;;;;5024771;28;20200;-49
2023/03/30 00:37:14;;;;;;;1.85;1.25;;;19.90;74.60;;;;;;5027774;28;20664;-50
2023/03/30 00:39:40;;;;;;;1.40;1.02;;;19.90;74.50;;;;;;5032135;28;20315;-54
2023/03/30 00:42:10;;;;;;;3.88;1.10;;;19.90;74.50;;;;;;5024547;28;20196;-53
2023/03/30 00:45:14;;;;;;;2.30;1.30;;;19.90;74.50;;;;;;5027860;28;20714;-51
2023/03/30 00:47:48;;;;;;;1.70;1.20;;;19.90;74.40;;;;;;5027340;28;20286;-51
2023/03/30 00:50:16;;;;;;;1.42;1.00;;;19.90;74.50;;;;;;5028868;28;20246;-51
2023/03/30 00:52:45;;;;;;;3.58;1.50;;;19.90;75.20;;;;;;5022035;28;20224;-50
2023/03/30 00:55:12;;;;;;;10.52;1.30;;;19.90;74.40;;;;;;5028770;28;20307;-49
2023/03/30 00:57:43;;;;;;;3.17;1.48;;;19.90;74.40;;;;;;5026753;28;20275;-50
2023/03/30 01:00:10;;;;;;;2.28;1.40;;;19.90;74.40;;;;;;5030064;28;20223;-50
2023/03/30 01:02:44;;;;;;;4.70;1.65;;;19.90;74.40;;;;;;5027192;28;20188;-49
2023/03/30 01:05:11;;;;;;;1.40;1.25;;;19.90;74.30;;;;;;5025877;28;20196;-50
2023/03/30 01:07:40;;;;;;;2.10;0.80;;;19.90;74.40;;;;;;5026883;28;20212;-53
2023/03/30 01:10:09;;;;;;;4.25;1.30;;;19.90;74.30;;;;;;5027635;28;20615;-50
2023/03/30 01:12:37;;;;;;;1.65;1.05;;;19.90;74.30;;;;;;5027853;28;20244;-51
2023/03/30 01:15:06;;;;;;;3.10;1.10;;;19.90;74.30;;;;;;5025586;28;20618;-50
2023/03/30 01:17:41;;;;;;;1.20;0.90;;;19.90;74.30;;;;;;5031621;28;20219;-50
2023/03/30 01:20:50;;;;;;;1.83;1.10;;;19.80;74.20;;;;;;5029614;28;20302;-51
2023/03/30 01:24:03;;;;;;;1.48;1.20;;;19.80;74.20;;;;;;5025086;28;20217;-51
2023/03/30 01:26:41;;;;;;;1.40;1.10;;;19.80;74.20;;;;;;5002184;28;20188;-52
2023/03/30 01:29:15;;;;;;;1.35;1.20;;;19.80;74.10;;;;;;5019553;28;20196;-50
2023/03/30 01:32:11;;;;;;;1.30;1.10;;;19.80;74.10;;;;;;5031313;28;20767;-51
2023/03/30 01:35:03;;;;;;;1.58;1.10;;;19.80;74.00;;;;;;5021976;28;20199;-49
2023/03/30 01:37:51;;;;;;;1.48;1.17;;;19.80;74.00;;;;;;5020747;28;20200;-50
2023/03/30 01:40:23;;;;;;;1.63;1.10;;;19.80;74.00;;;;;;5025610;28;20354;-52
2023/03/30 01:42:56;;;;;;;1.50;1.27;;;19.80;74.00;;;;;;5018775;28;20222;-51
2023/03/30 01:45:31;;;;;;;2.42;1.50;;;19.80;73.90;;;;;;5019349;28;20204;-50
2023/03/30 01:48:06;;;;;;;1.35;1.10;;;19.80;73.90;;;;;;5021086;28;20200;-50
2023/03/30 01:50:38;;;;;;;1.02;0.90;;;19.80;73.90;;;;;;5017373;28;20616;-52
2023/03/30 01:53:13;;;;;;;2.45;1.02;;;19.80;73.90;;;;;;5030936;28;20660;-52
2023/03/30 01:55:43;;;;;;;1.73;1.15;;;19.80;73.90;;;;;;5027378;28;20603;-52
2023/03/30 01:58:17;;;;;;;1.70;1.40;;;19.80;73.90;;;;;;5023293;28;20196;-50
2023/03/30 02:00:47;;;;;;;1.88;1.58;;;19.80;74.00;;;;;;5029211;28;20267;-49
2023/03/30 02:03:17;;;;;;;1.48;1.00;;;19.80;73.90;;;;;;5019324;28;20341;-52
2023/03/30 02:05:49;;;;;;;1.40;0.90;;;19.80;73.90;;;;;;5026803;28;20192;-52
2023/03/30 02:08:18;;;;;;;1.80;1.10;;;19.80;73.90;;;;;;5024522;28;20200;-50
2023/03/30 02:10:48;;;;;;;1.70;1.15;;;19.70;73.80;;;;;;5030147;28;20196;-52
2023/03/30 02:13:16;;;;;;;2.45;1.20;;;19.70;73.80;;;;;;5025546;28;20656;-53
2023/03/30 02:15:47;;;;;;;2.65;1.15;;;19.70;73.80;;;;;;5025195;28;20734;-52
2023/03/30 02:18:13;;;;;;;1.20;1.00;;;19.70;73.70;;;;;;5028440;28;20254;-54
2023/03/30 02:20:41;;;;;;;1.45;1.25;;;19.70;73.70;;;;;;5026042;28;20215;-50
2023/03/30 02:23:08;;;;;;;1.95;1.10;;;19.70;73.70;;;;;;5034347;28;20220;-48
2023/03/30 02:25:37;;;;;;;2.63;0.90;;;19.70;73.80;;;;;;5028144;28;20204;-50
2023/03/30 02:28:06;;;;;;;1.30;0.90;;;19.70;73.80;;;;;;5027427;28;20254;-50
2023/03/30 02:30:33;;;;;;;1.38;1.20;;;19.70;73.80;;;;;;5030141;28;20200;-50
2023/03/30 02:33:00;;;;;;;1.60;1.10;;;19.70;73.80;;;;;;5039536;28;20561;-50
2023/03/30 02:35:46;;;;;;;1.30;0.80;;;19.70;73.80;;;;;;5030804;28;20250;-50
2023/03/30 02:38:37;;;;;;;1.35;1.20;;;19.70;73.80;;;;;;5017760;28;20192;-54
2023/03/30 02:41:13;;;;;;;2.15;1.10;;;19.70;73.80;;;;;;5020575;28;20763;-55
2023/03/30 02:43:51;;;;;;;1.60;1.20;;;19.70;73.80;;;;;;5019827;28;20298;-51
2023/03/30 02:46:38;;;;;;;1.23;1.08;;;19.60;73.60;;;;;;5021028;28;20215;-52
2023/03/30 02:49:16;;;;;;;1.30;1.20;;;19.60;73.60;;;;;;5027411;28;20579;-52
2023/03/30 02:51:47;;;;;;;1.73;0.98;;;19.60;73.60;;;;;;5021250;28;20200;-52
2023/03/30 02:54:26;;;;;;;1.33;1.00;;;19.60;73.70;;;;;;5026468;28;20913;-54
2023/03/30 02:57:00;;;;;;;1.77;1.10;;;19.60;73.70;;;;;;5013339;28;20253;-52
2023/03/30 02:59:34;;;;;;;2.55;1.15;;;19.60;73.70;;;;;;5022131;28;20220;-52
2023/03/30 03:02:06;;;;;;;1.10;0.90;;;19.60;73.70;;;;;;5020475;28;20222;-52
2023/03/30 03:04:35;;;;;;;1.42;1.02;;;19.60;73.60;;;;;;5032683;28;20286;-49
2023/03/30 03:07:01;;;;;;;1.48;1.10;;;19.60;73.60;;;;;;5020962;28;20208;-51
2023/03/30 03:09:29;;;;;;;2.22;1.10;;;19.60;73.60;;;;;;5022752;28;20266;-53
2023/03/30 03:11:56;;;;;;;1.70;1.10;;;19.60;73.70;;;;;;5024491;28;20220;-53
2023/03/30 03:14:25;;;;;;;1.70;1.38;;;19.60;74.40;;;;;;5016861;28;20193;-51
2023/03/30 03:16:53;;;;;;;1.73;1.10;;;19.50;73.60;;;;;;5020108;28;20557;-49
2023/03/30 03:19:20;;;;;;;1.63;1.20;;;19.60;73.60;;;;;;5021173;28;20201;-52
2023/03/30 03:21:47;;;;;;;1.60;1.10;;;19.50;73.50;;;;;;5025512;28;20212;-52
2023/03/30 03:24:16;;;;;;;2.30;0.88;;;19.50;73.50;;;;;;5030507;28;20254;-52
2023/03/30 03:26:43;;;;;;;1.10;0.90;;;19.60;73.60;;;;;;5018713;28;20708;-49
2023/03/30 03:29:09;;;;;;;1.48;0.90;;;19.50;73.50;;;;;;5020824;28;20192;-51
2023/03/30 03:31:36;;;;;;;1.10;1.00;;;19.50;73.50;;;;;;5021766;28;20275;-53
2023/03/30 03:34:05;;;;;;;2.08;1.25;;;19.50;73.50;;;;;;5026057;28;20192;-52
2023/03/30 03:36:32;;;;;;;1.20;0.93;;;19.50;73.50;;;;;;5019033;28;20189;-51
2023/03/30 03:38:59;;;;;;;2.05;1.23;;;19.50;73.50;;;;;;5024461;28;20216;-50
2023/03/30 03:41:26;;;;;;;1.20;0.95;;;19.50;73.40;;;;;;5025101;28;20277;-52
2023/03/30 03:43:52;;;;;;;1.55;1.10;;;19.50;73.40;;;;;;5021705;28;20319;-51
2023/03/30 03:46:19;;;;;;;1.48;1.00;;;19.50;73.40;;;;;;5021232;28;20196;-50
2023/03/30 03:48:46;;;;;;;1.30;1.00;;;19.50;73.40;;;;;;5024036;28;20196;-54
2023/03/30 03:51:14;;;;;;;1.80;1.00;;;19.50;73.40;;;;;;5020190;28;20199;-50
2023/03/30 03:53:41;;;;;;;1.65;1.05;;;19.50;73.40;;;;;;5022693;28;20217;-53
2023/03/30 03:56:08;;;;;;;1.13;0.88;;;19.50;73.30;;;;;;5021001;28;20197;-50
2023/03/30 03:58:35;;;;;;;1.63;1.33;;;19.50;73.30;;;;;;5021363;28;20510;-54
2023/03/30 04:01:02;;;;;;;1.60;0.90;;;19.50;73.30;;;;;;5025923;28;20278;-50
2023/03/30 04:03:29;;;;;;;1.20;0.90;;;19.50;73.30;;;;;;5022012;28;20378;-52
2023/03/30 04:05:59;;;;;;;2.22;1.30;;;19.50;73.40;;;;;;5030425;28;20200;-51
2023/03/30 04:08:28;;;;;;;1.38;1.00;;;19.50;73.30;;;;;;5030260;28;20315;-51
2023/03/30 04:10:55;;;;;;;1.70;1.40;;;19.50;73.30;;;;;;5042009;28;20743;-52
2023/03/30 04:13:21;;;;;;;1.65;1.10;;;19.50;73.30;;;;;;5020622;28;20208;-51
2023/03/30 04:15:48;;;;;;;1.60;1.00;;;19.50;73.40;;;;;;5022781;28;20891;-51
2023/03/30 04:18:15;;;;;;;1.10;0.90;;;19.50;73.40;;;;;;5028598;28;20273;-52
2023/03/30 04:20:41;;;;;;;1.30;1.00;;;19.50;73.30;;;;;;5021766;28;20615;-52
2023/03/30 04:23:08;;;;;;;1.50;0.98;;;19.50;73.40;;;;;;5025577;28;20615;-51
2023/03/30 04:25:38;;;;;;;1.42;1.00;;;19.50;73.40;;;;;;5029939;28;20492;-50
2023/03/30 04:28:05;;;;;;;1.05;0.88;;;19.50;73.30;;;;;;5020245;28;20617;-53
2023/03/30 04:30:32;;;;;;;1.40;1.08;;;19.50;73.30;;;;;;5026330;28;20208;-50
2023/03/30 04:33:03;;;;;;;1.60;1.20;;;19.50;74.10;;;;;;5032164;28;20203;-51
2023/03/30 04:35:31;;;;;;;1.10;0.90;;;19.50;74.20;;;;;;5032824;28;20247;-53
2023/03/30 04:37:59;;;;;;;1.50;1.10;;;19.40;73.20;;;;;;5028819;28;20668;-52
2023/03/30 04:40:25;;;;;;;1.20;0.90;;;19.40;73.20;;;;;;5022547;28;20228;-49
2023/03/30 04:42:53;;;;;;;1.63;1.00;;;19.40;73.20;;;;;;5024094;28;20200;-51
2023/03/30 04:45:20;;;;;;;1.15;0.90;;;19.40;73.20;;;;;;5023334;28;20200;-51
2023/03/30 04:47:47;;;;;;;1.70;0.98;;;19.40;73.20;;;;;;5035156;28;20661;-51
2023/03/30 04:50:14;;;;;;;2.83;1.00;;;19.40;73.20;;;;;;5028844;28;20204;-51
2023/03/30 04:52:41;;;;;;;1.17;1.05;;;19.40;73.20;;;;;;5023656;28;20192;-52
2023/03/30 04:55:09;;;;;;;1.20;1.10;;;19.40;73.20;;;;;;5018301;28;20235;-50
2023/03/30 04:57:35;;;;;;;1.70;1.30;;;19.40;73.20;;;;;;5029105;28;20726;-54
2023/03/30 05:00:08;;;;;;;1.65;1.23;;;19.40;73.10;;;;;;5028589;28;20224;-50
2023/03/30 05:02:34;;;;;;;1.30;0.90;;;19.40;73.20;;;;;;5026387;28;20264;-55
2023/03/30 05:05:01;;;;;;;1.35;0.90;;;19.40;73.40;;;;;;5030845;28;20242;-50
2023/03/30 05:07:28;;;;;;;1.35;0.93;;;19.40;73.10;;;;;;5024174;28;20192;-51
2023/03/30 05:09:55;;;;;;;1.48;1.23;;;19.40;73.10;;;;;;5034725;28;20196;-50
2023/03/30 05:12:21;;;;;;;1.00;0.85;;;19.40;73.20;;;;;;5022684;28;20657;-51
2023/03/30 05:14:48;;;;;;;1.17;0.98;;;19.40;73.20;;;;;;5018948;28;22162;-49
2023/03/30 05:17:16;;;;;;;1.52;0.90;;;19.40;73.20;;;;;;5018228;28;20675;-51
2023/03/30 05:19:43;;;;;;;1.15;0.90;;;19.40;73.10;;;;;;5016013;28;20197;-54
2023/03/30 05:22:09;;;;;;;1.13;0.90;;;19.40;73.10;;;;;;5014458;28;20283;-51
2023/03/30 05:24:36;;;;;;;1.10;0.90;;;19.40;73.00;;;;;;5037054;28;20264;-51
2023/03/30 05:27:03;;;;;;;1.75;1.10;;;19.40;73.00;;;;;;5018950;28;20245;-50
2023/03/30 05:29:31;;;;;;;1.38;0.93;;;19.40;73.00;;;;;;5027996;28;20659;-52
2023/03/30 05:31:58;;;;;;;1.20;1.00;;;19.40;72.90;;;;;;5020228;28;20906;-51
2023/03/30 05:34:26;;;;;;;1.17;0.80;;;19.50;73.00;;;;;;5030880;28;20192;-52
2023/03/30 05:36:53;;;;;;;1.45;1.10;;;19.50;73.10;;;;;;5024241;28;20619;-50
2023/03/30 05:39:20;;;;;;;2.72;1.45;;;19.50;73.00;;;;;;5026926;28;20212;-53
2023/03/30 05:41:46;;;;;;;1.30;1.00;;;19.50;73.00;;;;;;5027749;28;20615;-50
2023/03/30 05:44:13;;;;;;;1.90;1.30;;;19.50;73.00;;;;;;5028294;28;20691;-50
2023/03/30 05:46:40;;;;;;;1.33;1.13;;;19.50;73.00;;;;;;5029022;28;20195;-50
2023/03/30 05:49:07;;;;;;;1.25;0.95;;;19.50;73.00;;;;;;5029519;28;21186;-52
2023/03/30 05:51:35;;;;;;;1.10;0.95;;;19.50;73.00;;;;;;5027439;28;20278;-50
2023/03/30 05:54:03;;;;;;;2.08;1.30;;;19.50;73.00;;;;;;5025585;28;20196;-50
2023/03/30 05:56:30;;;;;;;1.52;0.80;;;19.50;73.00;;;;;;5028591;28;20708;-52
2023/03/30 05:58:56;;;;;;;1.17;0.80;;;19.50;73.00;;;;;;5030600;28;20199;-51
2023/03/30 06:01:24;;;;;;;1.20;0.88;;;19.50;72.90;;;;;;5031660;28;20335;-48
2023/03/30 06:03:51;;;;;;;1.40;0.80;;;19.50;72.90;;;;;;5028866;28;20196;-49
2023/03/30 06:06:18;;;;;;;1.50;1.25;;;19.50;72.90;;;;;;5027755;28;20200;-50
2023/03/30 06:08:46;;;;;;;1.23;0.95;;;19.50;72.90;;;;;;5033638;28;20733;-48
2023/03/30 06:11:13;;;;;;;1.00;0.80;;;19.60;73.00;;;;;;5033759;28;20196;-52
2023/03/30 06:13:40;;;;;;;1.20;0.90;;;19.60;73.00;;;;;;5020143;28;20284;-50
2023/03/30 06:16:07;;;;;;;1.13;1.00;;;19.60;73.00;;;;;;5019616;28;20201;-53
2023/03/30 06:18:34;;;;;;;1.30;1.10;;;19.60;73.00;;;;;;5030107;28;20200;-48
2023/03/30 06:21:05;;;;;;;1.20;0.90;;;19.60;72.90;;;;;;5019171;28;20219;-54
2023/03/30 06:23:32;;;;;;;1.33;1.02;;;19.60;72.90;;;;;;5030613;28;20590;-54
2023/03/30 06:26:00;;;;;;;1.73;0.90;;;19.60;72.90;;;;;;5032238;28;20250;-51
2023/03/30 06:28:27;;;;;;;0.90;0.80;;;19.60;72.90;;;;;;5025689;28;20572;-51
2023/03/30 06:30:54;;;;;;;1.13;0.88;;;19.70;73.00;;;;;;5033282;28;21012;-53
2023/03/30 06:33:21;;;;;;;1.52;1.23;;;19.70;73.00;;;;;;5030408;28;20216;-50
2023/03/30 06:35:49;;;;;;;1.00;0.80;;;19.70;73.00;;;;;;5027274;28;20207;-51
2023/03/30 06:38:17;;;;;;;1.20;0.90;;;19.70;73.00;;;;;;5023286;28;20204;-50
2023/03/30 06:40:43;;;;;;;1.50;1.13;;;19.70;73.00;;;;;;5027085;28;20635;-51
2023/03/30 06:43:16;;;;;;;1.00;0.80;;;19.70;73.00;;;;;;5025476;28;20466;-53
2023/03/30 06:45:43;;;;;;;1.10;0.95;;;19.70;73.00;;;;;;5024874;28;20323;-49
2023/03/30 06:48:10;;;;;;;1.00;0.80;;;19.70;73.00;;;;;;5024507;28;20609;-54
2023/03/30 06:50:37;;;;;;;1.50;0.93;;;19.70;73.00;;;;;;5035479;28;20203;-48
2023/03/30 06:53:04;;;;;;;1.00;0.80;;;19.70;73.00;;;;;;5025768;28;20556;-52
2023/03/30 06:55:31;;;;;;;1.40;1.00;;;19.70;73.00;;;;;;5024877;28;20311;-50
2023/03/30 06:57:58;;;;;;;1.20;0.90;;;19.70;73.00;;;;;;5026228;28;20250;-51
2023/03/30 07:00:26;;;;;;;0.90;0.80;;;19.70;72.90;;;;;;5029092;28;20691;-52
2023/03/30 07:02:53;;;;;;;1.90;1.00;;;19.70;72.90;;;;;;5028985;28;20200;-51
2023/03/30 07:05:23;;;;;;;1.42;1.08;;;19.80;73.10;;;;;;5025024;28;20265;-52
2023/03/30 07:07:51;;;;;;;0.90;0.70;;;19.70;73.00;;;;;;5026319;28;20203;-53
2023/03/30 07:10:18;;;;;;;1.10;1.00;;;19.80;73.10;;;;;;5028453;28;20202;-50
2023/03/30 07:12:44;;;;;;;1.23;1.13;;;19.80;73.10;;;;;;5026720;28;20246;-50
2023/03/30 07:15:12;;;;;;;1.27;0.77;;;19.80;73.10;;;;;;5026644;28;20203;-48
2023/03/30 07:17:40;;;;;;;1.08;0.85;;;19.80;73.00;;;;;;5029126;28;20286;-51
2023/03/30 07:20:09;;;;;;;2.25;1.02;;;19.80;73.10;;;;;;5028925;28;20192;-49
2023/03/30 07:22:36;;;;;;;2.03;1.10;;;19.80;73.00;;;;;;5024645;28;20785;-50
2023/03/30 07:25:03;;;;;;;2.42;0.82;;;19.80;72.90;;;;;;5028549;28;20203;-50
2023/03/30 07:27:30;;;;;;;1.35;0.90;;;19.90;73.10;;;;;;5024650;28;20665;-52
2023/03/30 07:29:56;;;;;;;11.85;1.30;;;19.90;73.10;;;;;;5020566;28;20262;-50
2023/03/30 07:32:23;;;;;;;3.22;1.33;;;19.90;73.30;;;;;;5036588;28;20200;-51
2023/03/30 07:34:52;;;;;;;2.17;0.98;;;19.90;73.40;;;;;;5021297;28;20330;-50
2023/03/30 07:37:19;;;;;;;2.53;0.90;;;20.00;73.50;;;;;;5025646;28;20200;-51
2023/03/30 07:39:45;;;;;;;5.22;1.20;;;20.00;73.50;;;;;;5025566;28;20196;-49
2023/03/30 07:42:12;;;;;;;2.13;0.80;;;20.00;73.70;;;;;;5031619;28;20623;-52
2023/03/30 07:44:39;;;;;;;2.42;1.10;;;20.00;73.70;;;;;;5028095;28;20264;-51
2023/03/30 07:47:06;;;;;;;1.20;0.90;;;20.00;73.80;;;;;;5024951;28;20201;-49
2023/03/30 07:49:33;;;;;;;1.92;1.13;;;20.00;73.80;;;;;;5025046;28;20270;-48
2023/03/30 07:52:01;;;;;;;1.35;1.15;;;20.00;73.90;;;;;;5022378;28;20597;-49
2023/03/30 07:54:28;;;;;;;1.30;1.00;;;20.00;74.00;;;;;;5022645;28;20187;-49
2023/03/30 07:56:55;;;;;;;1.02;0.70;;;20.00;74.00;;;;;;5027416;28;20542;-49
2023/03/30 07:59:23;;;;;;;1.20;0.90;;;20.10;74.30;;;;;;5029246;28;20196;-47
2023/03/30 08:01:50;;;;;;;1.00;0.77;;;20.10;74.30;;;;;;5026772;28;20216;-48
2023/03/30 08:04:18;;;;;;;1.58;0.80;;;20.10;74.30;;;;;;5032082;28;20552;-48
2023/03/30 08:06:44;;;;;;;4.45;0.90;;;20.10;74.30;;;;;;5033001;28;20204;-49
2023/03/30 08:09:13;;;;;;;1.10;0.80;;;20.10;74.30;;;;;;5027100;28;20193;-50
2023/03/30 08:11:40;;;;;;;1.00;0.88;;;20.10;74.40;;;;;;5030098;28;20197;-51
2023/03/30 08:14:07;;;;;;;1.00;0.70;;;20.10;75.10;;;;;;5023948;28;20207;-50
2023/03/30 08:16:34;;;;;;;3.65;1.08;;;20.10;74.40;;;;;;5020667;28;20208;-50
2023/03/30 08:19:00;;;;;;;1.88;1.10;;;20.10;74.40;;;;;;5027068;28;20249;-50
2023/03/30 08:21:27;;;;;;;1.15;0.90;;;20.10;74.50;;;;;;5023723;28;20753;-50
2023/03/30 08:23:56;;;;;;;4.63;1.00;;;20.10;74.40;;;;;;5029928;28;20640;-50
2023/03/30 08:26:25;;;;;;;2.38;1.00;;;20.10;74.10;;;;;;5019295;28;20564;-48
2023/03/30 08:28:51;;;;;;;9.27;1.65;;;20.10;74.20;;;;;;5017521;28;20473;-50
2023/03/30 08:31:19;;;;;;;1.50;0.80;;;20.00;74.00;;;;;;5023197;28;20238;-50
2023/03/30 08:33:46;;;;;;;8.32;1.30;;;20.00;73.90;;;;;;5028820;28;20211;-51
2023/03/30 08:36:13;;;;;;;2.35;0.85;;;20.00;73.80;;;;;;5024981;28;20196;-49
2023/03/30 08:38:40;;;;;;;1.20;0.98;;;20.00;73.70;;;;;;5028010;28;20600;-51
2023/03/30 08:41:42;;;;;;;3.17;0.82;;;20.00;73.60;;;;;;5028777;28;20612;-49
2023/03/30 08:44:20;;;;;;;1.15;0.95;;;20.00;73.50;;;;;;5028948;28;20642;-50
2023/03/30 08:46:47;;;;;;;1.60;0.93;;;20.00;73.40;;;;;;5028452;28;20283;-50
2023/03/30 08:49:16;;;;;;;1.98;0.95;;;20.00;73.30;;;;;;5029493;28;20250;-49
2023/03/30 08:51:45;;;;;;;1.30;0.90;;;20.00;73.20;;;;;;5028358;28;20208;-50
2023/03/30 08:54:16;;;;;;;2.92;1.05;;;20.00;73.10;;;;;;5024067;28;20206;-49
2023/03/30 08:56:54;;;;;;;1.30;1.00;;;20.00;73.10;;;;;;5030436;28;20191;-51
2023/03/30 08:59:28;;;;;;;4.03;1.17;;;20.00;72.90;;;;;;5025505;28;20196;-50
2023/03/30 09:01:59;;;;;;;1.63;0.98;;;20.00;72.90;;;;;;5030545;28;20207;-50
2023/03/30 09:04:42;;;;;;;2.13;1.15;;;20.00;72.80;;;;;;5032383;28;20681;-51
2023/03/30 09:07:16;;;;;;;7.13;1.10;;;20.00;72.80;;;;;;5029966;28;20188;-50
2023/03/30 09:09:46;;;;;;;2.05;0.88;;;20.00;72.80;;;;;;5030851;28;20258;-51
2023/03/30 09:12:27;;;;;;;1.33;1.15;;;20.00;72.70;;;;;;5029197;28;20196;-52
2023/03/30 09:14:58;;;;;;;1.83;1.00;;;20.00;72.70;;;;;;5029400;28;20188;-50
2023/03/30 09:17:30;;;;;;;1.08;0.90;;;20.00;72.60;;;;;;5026695;28;20200;-50
2023/03/30 09:20:01;;;;;;;1.30;0.80;;;20.00;72.60;;;;;;5032481;28;20287;-49
2023/03/30 09:22:35;;;;;;;3.47;1.00;;;20.10;72.60;;;;;;5032863;28;20437;-49
2023/03/30 09:25:02;;;;;;;1.05;0.90;;;20.10;72.50;;;;;;5028598;28;20204;-52
2023/03/30 09:27:42;;;;;;;1.42;0.85;;;20.10;72.60;;;;;;5028568;28;20745;-49
2023/03/30 09:30:18;;;;;;;1.30;0.95;;;20.10;72.60;;;;;;5021946;28;20710;-49
2023/03/30 09:32:56;;;;;;;1.20;0.98;;;20.10;72.60;;;;;;5016337;28;20275;-51
2023/03/30 09:35:27;;;;;;;1.27;1.10;;;20.10;72.60;;;;;;5030400;28;20234;-52
2023/03/30 09:37:53;;;;;;;2.15;1.00;;;20.10;72.60;;;;;;5028899;28;20192;-50
2023/03/30 09:40:34;;;;;;;1.42;1.33;;;20.20;72.80;;;;;;5019826;28;20435;-50
2023/03/30 09:43:10;;;;;;;1.45;0.93;;;20.20;72.70;;;;;;5017733;28;20620;-52
2023/03/30 09:45:37;;;;;;;2.25;1.10;;;20.20;73.10;;;;;;5018529;28;20739;-59
2023/03/30 09:48:05;;;;;;;1.60;1.23;;;20.10;73.30;;;;;;5019217;28;20599;-72
2023/03/30 09:50:38;;;;;;;1.23;0.90;;;20.20;73.40;;;;;;5020321;28;20295;-64
2023/03/30 09:53:17;;;;;;;1.58;1.00;;;20.20;73.40;;;;;;5026407;28;20262;-61
2023/03/30 09:55:57;;;;;;;3.20;1.10;;;20.30;73.50;;;;;;5018266;28;20278;-64
2023/03/30 09:58:28;;;;;;;1.85;1.27;;;20.30;73.50;;;;;;5021718;28;20267;-53
2023/03/30 10:01:05;;;;;;;1.10;0.95;;;20.40;73.60;;;;;;5024914;28;20192;-60
2023/03/30 10:03:33;;;;;;;1.60;1.10;;;20.40;73.70;;;;;;5022344;28;20584;-52
2023/03/30 10:06:02;;;;;;;3.70;1.48;;;20.40;73.90;;;;;;5017884;28;20605;-47
2023/03/30 10:08:30;;;;;;;17.80;1.17;;;20.40;74.10;;;;;;5030821;28;20192;-54
2023/03/30 10:10:58;;;;;;;1.52;1.40;;;20.40;74.20;;;;;;5029727;28;20196;-52
2023/03/30 10:13:30;;;;;;;1.52;1.20;;;20.40;74.20;;;;;;5022006;28;20207;-52
2023/03/30 10:16:03;;;;;;;2.95;1.10;;;20.50;74.30;;;;;;5014507;28;22018;-51
2023/03/30 10:18:37;;;;;;;2.45;1.23;;;20.50;74.50;;;;;;5017246;28;20206;-51
2023/03/30 10:21:06;;;;;;;6.05;1.48;;;20.50;74.50;;;;;;5014353;28;20653;-50
2023/03/30 10:23:38;;;;;;;3.45;1.42;;;20.50;74.70;;;;;;5024007;28;20285;-53
2023/03/30 10:26:12;;;;;;;1.30;1.00;;;20.60;75.00;;;;;;5025004;28;20189;-60
2023/03/30 10:28:40;;;;;;;1.30;1.20;;;20.60;75.20;;;;;;5021330;28;20527;-51
2023/03/30 10:31:14;;;;;;;2.50;1.40;;;20.60;75.20;;;;;;5019111;28;20771;-53
2023/03/30 10:33:43;;;;;;;5.40;1.67;;;20.60;75.70;;;;;;5025326;28;20709;-54
2023/03/30 10:36:13;;;;;;;3.25;1.30;;;20.60;75.70;;;;;;5015868;28;20200;-60
2023/03/30 10:38:41;;;;;;;1.20;1.00;;;20.60;75.90;;;;;;5020287;28;20204;-59
2023/03/30 10:41:11;;;;;;;2.13;1.40;;;20.60;76.00;;;;;;5016345;28;20823;-58
2023/03/30 10:43:40;;;;;;;2.17;1.40;;;20.60;76.00;;;;;;5013305;28;20990;-57
2023/03/30 10:46:12;;;;;;;1.88;1.50;;;20.70;76.10;;;;;;5024781;28;20455;-57
2023/03/30 10:48:53;;;;;;;3.80;1.33;;;20.70;76.10;;;;;;5016017;28;20209;-54
2023/03/30 10:51:29;;;;;;;3.60;1.60;;;20.70;76.20;;;;;;5014415;28;20497;-58
2023/03/30 10:54:05;;;;;;;1.70;1.40;;;20.70;76.20;;;;;;5015301;28;20518;-58
2023/03/30 10:56:38;;;;;;;1.67;1.57;;;20.70;76.20;;;;;;5019727;28;20618;-56
2023/03/30 10:59:25;;;;;;;2.80;1.50;;;20.70;76.10;;;;;;5023984;28;20459;-54
2023/03/30 11:02:03;;;;;;;3.60;1.30;;;20.80;76.20;;;;;;5014968;28;20486;-56
2023/03/30 11:04:36;;;;;;;2.72;1.67;;;20.80;76.20;;;;;;5022971;28;20444;-60
2023/03/30 11:07:10;;;;;;;1.10;1.00;;;20.80;76.30;;;;;;5013733;28;20561;-62
2023/03/30 11:09:41;;;;;;;1.20;1.02;;;20.80;76.20;;;;;;5023532;28;20550;-57
2023/03/30 11:12:13;;;;;;;1.50;1.27;;;20.80;76.20;;;;;;5024752;28;20639;-52
2023/03/30 11:14:49;;;;;;;1.90;1.20;;;20.80;76.20;;;;;;5023709;28;20469;-54
2023/03/30 11:17:22;;;;;;;3.50;1.88;;;20.80;76.20;;;;;;5013885;28;20459;-53
2023/03/30 11:19:55;;;;;;;2.10;1.73;;;20.70;76.40;;;;;;5008366;28;20192;-51
2023/03/30 11:22:30;;;;;;;2.10;1.30;;;20.70;76.60;;;;;;5012424;28;20216;-52
2023/03/30 11:24:59;;;;;;;1.43;1.00;;;20.60;76.60;;;;;;5009656;28;20517;-52
2023/03/30 11:27:29;;;;;;;3.20;1.35;;;20.60;76.70;;;;;;5011347;28;20471;-50
2023/03/30 11:30:03;;;;;;;2.95;1.25;;;20.60;76.80;;;;;;5012240;28;20192;-51
2023/03/30 11:32:37;;;;;;;1.42;1.10;;;20.60;76.90;;;;;;5012296;28;20196;-51
2023/03/30 11:35:12;;;;;;;4.05;1.95;;;20.60;77.00;;;;;;5016810;28;20187;-50
2023/03/30 11:37:45;;;;;;;2.80;1.20;;;20.60;77.00;;;;;;5021281;28;20199;-51
2023/03/30 11:40:17;;;;;;;1.65;1.55;;;20.60;77.90;;;;;;5018146;28;20459;-49
2023/03/30 11:42:44;;;;;;;1.40;1.10;;;20.60;77.10;;;;;;5018251;28;20286;-50
2023/03/30 11:45:26;;;;;;;2.10;1.77;;;20.60;77.10;;;;;;5026515;28;20875;-54
2023/03/30 11:48:07;;;;;;;2.90;1.40;;;20.70;77.30;;;;;;5015864;28;20529;-52
2023/03/30 11:50:56;;;;;;;2.63;1.40;;;20.70;77.50;;;;;;5019794;28;20514;-55
2023/03/30 11:53:32;;;;;;;2.78;1.25;;;20.70;77.50;;;;;;5018598;28;20189;-55
2023/03/30 11:56:06;;;;;;;4.17;1.90;;;20.70;77.70;;;;;;5018636;28;20277;-55
2023/03/30 11:58:36;;;;;;;1.90;1.30;;;20.70;77.70;;;;;;5015363;28;20550;-52
2023/03/30 12:01:19;;;;;;;1.10;0.88;;;20.70;77.70;;;;;;5016045;28;20195;-48
2023/03/30 12:03:49;;;;;;;1.90;1.40;;;20.70;77.70;;;;;;5023505;28;20274;-54
2023/03/30 12:06:29;;;;;;;2.93;1.23;;;20.70;77.90;;;;;;5024119;28;20584;-59
2023/03/30 12:09:28;;;;;;;2.27;1.20;;;20.80;77.80;;;;;;5015699;28;20541;-58
2023/03/30 12:12:04;;;;;;;1.67;1.37;;;20.80;77.70;;;;;;5007925;28;20514;-59
2023/03/30 12:14:41;;;;;;;3.38;1.70;;;20.90;77.70;;;;;;5015090;28;20470;-51
2023/03/30 12:17:24;;;;;;;2.47;1.00;;;20.90;77.60;;;;;;5025229;28;20263;-53
2023/03/30 12:19:55;;;;;;;2.77;1.40;;;20.90;77.60;;;;;;5014299;28;20518;-52
2023/03/30 12:22:28;;;;;;;1.77;1.17;;;20.90;77.60;;;;;;5013683;28;20492;-54
2023/03/30 12:25:01;;;;;;;1.13;1.00;;;21.00;77.70;;;;;;5012634;28;20456;-50
2023/03/30 12:27:30;;;;;;;3.37;1.50;;;21.00;77.70;;;;;;5012992;28;20463;-51
2023/03/30 12:30:12;;;;;;;1.47;1.10;;;21.00;77.60;;;;;;5011799;28;20582;-50
2023/03/30 12:32:58;;;;;;;1.87;1.30;;;21.00;77.70;;;;;;5014782;28;20452;-49
2023/03/30 12:35:53;;;;;;;2.13;1.73;;;20.90;77.60;;;;;;5008806;28;20530;-56
2023/03/30 12:38:24;;;;;;;1.33;1.23;;;20.90;77.80;;;;;;5005449;28;20564;-60
2023/03/30 12:41:04;;;;;;;2.47;1.10;;;21.00;77.90;;;;;;5013605;28;20459;-55
2023/03/30 12:43:37;;;;;;;1.50;1.20;;;21.00;77.90;;;;;;5011849;28;20483;-54
2023/03/30 12:46:12;;;;;;;1.43;1.10;;;21.00;77.80;;;;;;5015891;28;21477;-49
2023/03/30 12:48:48;;;;;;;2.77;1.40;;;21.00;77.80;;;;;;5014090;28;20966;-53
2023/03/30 12:51:30;;;;;;;2.40;1.23;;;21.00;77.70;;;;;;5017331;28;20476;-52
2023/03/30 12:54:22;;;;;;;2.43;1.17;;;21.00;77.90;;;;;;5014727;28;21121;-55
2023/03/30 12:56:57;;;;;;;4.00;1.47;;;21.10;77.90;;;;;;5030265;28;21021;-53
2023/03/30 12:59:42;;;;;;;2.83;1.37;;;21.10;77.90;;;;;;5023510;28;20545;-60
2023/03/30 13:02:36;;;;;;;1.70;1.50;;;21.10;77.90;;;;;;5018515;28;20534;-61
2023/03/30 13:05:05;;;;;;;1.30;1.00;;;21.10;77.90;;;;;;5024608;28;20512;-57